AirNav   Everest Fuels
 
 532 users online  

KCDW Essex County Airport
Caldwell, New Jersey, USA

GOING TO CALDWELL?


FAA INFORMATION EFFECTIVE 15 JULY 2021

Location

FAA Identifier: CDW
Lat/Long: 40-52-30.8000N 074-16-52.9000W
40-52.513333N 074-16.881667W
40.8752222,-74.2813611
(estimated)
Elevation: 172.3 ft. / 52.5 m (surveyed)
Variation: 13W (1985)
From city: 2 miles N of CALDWELL, NJ
Time zone: UTC -4 (UTC -5 during Standard Time)
Zip code: 07004

Airport Operations

Airport use: Open to the public
Activation date: 02/1938
Control tower: yes
ARTCC: NEW YORK CENTER
FSS: MILLVILLE FLIGHT SERVICE STATION
NOTAMs facility: CDW (NOTAM-D service available)
Attendance: 0700-2300
Pattern altitude: TPA FOR LARGE & TURBOJET ACFT 1527 FT AGL; TPA FOR LIGHT ACFT 1027 FT AGL.
Wind indicator: lighted
Segmented circle: no
Lights: WHEN ATCT CLSD, MIRL RY 10/28 AND HIRL RY 04/22 PRESET MEDIUM INTST. REIL RY 22 AVBL HIGH INTST ONLY. ACTVT HIRL RY 04/22 & REIL RY 22 - CTAF.
Beacon: white-green (lighted land airport)
AIRPORT BEACON LOCATED ON TOP OF CONTROL TOWER. Operates sunset to sunrise.
Landing fee: yes

Airport Communications

CTAF: 119.8
UNICOM: 122.95
ATIS: 135.5
WX ASOS: 135.5 (973-575-4417)
CALDWELL GROUND: 121.9 [0700-2300]
CALDWELL TOWER: 119.8 [0700-2300]
NEW YORK APPROACH: 127.6
NEW YORK DEPARTURE: 119.2
CLEARANCE DELIVERY: 121.1
WX AWOS-3 at MMU (8 nm SW): PHONE 973-290-0135
WX ASOS at TEB (10 nm E): PHONE 201-393-0855
WX ASOS at EWR (12 nm SE): PHONE 973-621-2892
WX AWOS-3 at LDJ (16 nm S): 124.025 (908-862-7383)
WX AWOS-3PT at JRB (16 nm SE): 128.175 (212-425-1534)
WX ASOS at LGA (19 nm E): PHONE 718-672-6317
  • FREQ 121.5 NOT AVAILABLE.

Nearby radio navigation aids

VOR radial/distance  VOR name  Freq  Var
TEBr290/10.1TETERBORO VOR/DME108.4011W
SAXr146/16.4SPARTA VORTAC115.7011W
LGAr298/19.5LA GUARDIA VOR/DME113.1012W
CRIr323/23.6CANARSIE VOR/DME112.3011W
BWZr090/25.0BROADWAY VOR/DME114.2011W
SBJr060/27.3SOLBERG VOR/DME112.9010W
JFKr314/27.4KENNEDY VOR/DME115.9012W
STWr116/27.6STILLWATER VOR/DME109.6011W
COLr002/34.3COLTS NECK VOR/DME115.4011W
HUOr167/35.0HUGUENOT VOR/DME116.1011W
CMKr245/39.9CARMEL VOR/DME116.6012W

 
NDB name  Hdg/Dist  Freq  Var  ID
TORBY314/8.021412WTE - .
CHATHAM053/10.525413WCAT -.-. .- -

Airport Services

Fuel available: 100LL JET-A
Parking: hangars and tiedowns
Airframe service: MAJOR
Powerplant service: MAJOR
Bottled oxygen: LOW
Bulk oxygen: NONE

Runway Information

Runway 4/22

Dimensions: 4552 x 80 ft. / 1387 x 24 m
Surface: asphalt, in good condition
Weight bearing capacity: 
Single wheel: 30.0
Runway edge lights: high intensity
RUNWAY 4  RUNWAY 22
Latitude: 40-52.065583N40-52.717297N
Longitude: 074-17.180265W074-16.692387W
Elevation: 172.0 ft.171.8 ft.
Traffic pattern: leftright
Runway heading: 043 magnetic, 030 true223 magnetic, 210 true
Displaced threshold: 375 ft.134 ft.
Markings: nonprecision, in good conditionnonprecision, in good condition
Visual slope indicator: 4-light PAPI on right (3.00 degrees glide path)
RY 22 PAPI UNUSABLE BYD 5 DEGREES RIGHT OF CENTERLINE DUE TO OBSTRUCTION.
Runway end identifier lights: noyes
Touchdown point: yes, no lightsyes, no lights
Instrument approach: LOCALIZER
Obstructions: 45 ft. tree, 220 ft. from runway, 137 ft. left of centerline
APCH RATIO 13:1 TO DSPLCD THLD.
90 ft. trees, 400 ft. from runway, 245 ft. both sides of centerline, 2:1 slope to clear
6 FT FENCE, 200 FT FM RY END, ACROSS CNTRLN.

Runway 10/28

Dimensions: 3719 x 75 ft. / 1134 x 23 m
Surface: asphalt, in good condition
Weight bearing capacity: 
Single wheel: 30.0
Runway edge lights: medium intensity
RUNWAY 10  RUNWAY 28
Latitude: 40-52.626308N40-52.699297N
Longitude: 074-17.213872W074-16.412762W
Elevation: 168.4 ft.172.1 ft.
Traffic pattern: leftright
Runway heading: 096 magnetic, 083 true276 magnetic, 263 true
Displaced threshold: 344 ft.550 ft.
Markings: basic, in good conditionbasic, in good condition
Runway end identifier lights: nono
Touchdown point: yes, no lightsyes, no lights
Obstructions: 39 ft. tree, 264 ft. from runway, 1:1 slope to clear
RY 10 APCH SLOPE 11:1 TO DSPLCD THLD.
46 ft. tree, 423 ft. from runway, 123 ft. left of centerline, 4:1 slope to clear
6 FT FENCE, 195 FT FM RY END, 120 FT LT OF CNTRLN.

Airport Ownership and Management from official FAA records

Ownership: Publicly-owned
Owner: ESSEX COUNTY IMPROVEMENT AUTHORITY
27 WRIGHT WAY
FAIRFIELD, NJ 07004
Phone 973-575-0952
Manager: TOM GOMEZ
27 WRIGHT WAY
FAIRFIELD, NJ 07004
Phone 973-227-4567

Airport Operational Statistics

Aircraft based on the field: 206
Single engine airplanes: 167
Multi engine airplanes: 24
Jet airplanes: 6
Helicopters: 9
    
Aircraft operations: avg 163/day *
60% transient general aviation
36% local general aviation
2% military
2% air taxi
* for 12-month period ending 11 December 2020

Additional Remarks

TURBO JET ACFT LNDG & TKOFS RESTRICTED TO RWY 04/22.
DEER & BIRDS ON & INVOF ARPT.
NON-STANDARD TRAFFIC PATTERNS FOR RWY 04 PROHIBITED DUE TO NOISE SENSITIVE AREA SOUTHWEST OF THE AIRPORT.
FOR CD WHEN ATCT IS CLSD CTC NEW YORK APCH AT 800-645-3206
ROTOCRAFT: IF PSBL, CROSS THE ARPT BDRY AT OR ABV 700 FT MSL.
LCL OPNS SUSPENDED FROM 2300-0700 MON THRU SAT 2300 SAT UNTIL 1000 SUN.
FIXED WING VFR ACFT DEP: RWY 4 - FLY RWY HDG FOR 1 MI, THEN TURN CROSSWIND IF REMAINING IN THE TFC PAT. IF DEPARTING THE TFC PAT, CONT ON RWY HDG TIL REACHING TFC PAT ALT.
FIXED WING VFR ACFT DEP: RWY 10 - FLY HDG 080 DEG AT RWY DEP END. UPON REACHING 900 FT MSL, TURN CROSSWIND IF REMAINING IN THE TFC PAT; IF DEPARTING THE TFC PAT, CONT ON HDG 080 DEG TIL REACHING TFC PAT ALT.
FIXED WING VFR ACFT DEP: RWY 22 - FLY RWY HDG TIL REACHING 900 FT MSL, THEN TURN CROSSWIND IF REMAINING IN THE TFC PAT. IF DEPARTING THE TFC PAT, CONT ON RWY HDG TIL REACHING TFC PAT ALT.
FIXED WING VFR ACFT DEP: RWY 28 - FLY RWY HDG FOR 1 MI THEN TURN CROSSWIND IF REMAINING IN THE TFC PAT. IF DEPARTING THE TFC PAT, CONT ON RWY HDG TIL READHING TFC PAT ALT.
PILOTS BE ALERT -- THE MORRISTOWN ILS & GPS RWY 23 APPROACHES TRANSIT ESSEX CO ARPT CLASS D ASP. TFC PASSES TWO MI WEST OF THE ARPT DESCENDING THRU 2000 FT MSL.

Instrument Procedures

NOTE: All procedures below are presented as PDF files. If you need a reader for these files, you should download the free Adobe Reader.

NOT FOR NAVIGATION. Please procure official charts for flight.
FAA instrument procedures published for use from 15 July 2021 at 0901Z to 12 August 2021 at 0900z.

 
STARs - Standard Terminal Arrivals
JAIKE THREE (RNAV)   download (230KB)
MAZIE THREE (RNAV)   download (201KB)
WILKES-BARRE FOUR **CHANGED**   download (227KB)
 
IAPs - Instrument Approach Procedures
RNAV (GPS) RWY 04   download (233KB)
RNAV (GPS) RWY 10   download (231KB)
RNAV (GPS) RWY 22   download (249KB)
LOC RWY 22   download (311KB)
NOTE: Special Alternate Minimums apply   download (125KB)
NOTE: Special Take-Off Minimums/Departure Procedures apply   download (150KB)

Other nearby airports with instrument procedures:

N07 - Lincoln Park Airport (5 nm N)
KMMU - Morristown Municipal Airport (8 nm SW)
KTEB - Teterboro Airport (10 nm E)
KEWR - Newark Liberty International Airport (12 nm SE)
KJRA - West 30th St Heliport (14 nm SE)
4N1 - Greenwood Lake Airport (15 nm N)
KLDJ - Linden Airport (16 nm S)
6N5 - East 34th Street Heliport (16 nm SE)
KJRB - Downtown Manhattan/Wall Street Heliport (16 nm SE)
KLGA - LaGuardia Airport (19 nm E)
 
Loc | Ops | Rwys | IFR | FBO | Links
Com | Nav | Svcs | Stats | Notes
Area around KCDW (Essex County Airport)
 
Road maps at: MapQuest Bing Google
 
Aerial photo
WARNING: Photo may not be current or correct
Aerial photo of KCDW (Essex County Airport)
Photo by Joshua Weinstein
Photo taken 14-Oct-2018
looking east.

Do you have a better or more recent aerial photo of Essex County Airport that you would like to share? If so, please send us your photo.

 
Sectional chart

 
Airport diagram
CAUTION: Diagram may not be current
Diagram of KCDW (Essex County Airport)
Download PDF
of official airport diagram from the FAA

 
Airport distance calculator
Flying to Essex County Airport? Find the distance to fly.

From to KCDW

Sunrise and sunset
Times for 24-Jul-2021
 Local
(UTC-4)
 Zulu
(UTC)
Morning civil twilight05:1509:15
Sunrise05:4709:47
Sunset20:2000:20
Evening civil twilight20:5200:52

Current date and time
Zulu (UTC)  24-Jul-2021 05:37:12
Local (UTC-4)  24-Jul-2021 01:37:12
 
METAR
KCDW 240453Z AUTO 00000KT 10SM CLR 19/16 A3013 RMK AO2 SLP206 T01940161 402940161
KMMU 
8nm SW 
240515Z AUTO 00000KT 7SM CLR 16/16 A3012 RMK AO2
KTEB 
11nm E 
240451Z 00000KT 10SM CLR 21/14 A3010 RMK AO2 SLP192 T02110144 402720167
KEWR 
13nm SE 
240451Z 02005KT 10SM FEW070 22/16 A3011 RMK AO2 SLP194 T02170156 403000200 $
KNYC 
15nm E 
240451Z AUTO 02003KT 10SM CLR 22/16 A3014 RMK AO2 SLP195 T02170156 402830194 $
KLDJ 
16nm S 
240515Z AUTO 00000KT 10SM CLR 20/16 A3011 RMK AO2 T02010163
KJRB 
16nm SE 
240456Z AUTO 00000KT 10SM CLR 23/16 A3011 RMK AO2 SLP196 T02280156 403000206
KLGA 
19nm E 
240451Z 06003KT 10SM FEW110 24/14 A3010 RMK AO2 SLP192 T02390144 402830211
TAF
KTEB 
11nm E 
240231Z 2403/2506 VRB03KT P6SM FEW080 FM241700 18008KT P6SM SCT070 FM250100 19006KT P6SM BKN070
KEWR 
13nm SE 
240231Z 2403/2506 34005KT P6SM FEW090 FM241200 04005KT P6SM FEW070 FM241700 15008KT P6SM SCT070 FM250100 20007KT P6SM BKN070
KLGA 
19nm E 
240231Z 2403/2506 VRB05KT P6SM FEW060 SCT080 FM240400 36004KT P6SM FEW070 FM241200 05006KT P6SM FEW070 FM242000 16009KT P6SM SCT070 FM250100 19008KT P6SM BKN070
NOTAMs
Click for the latest NOTAMs
NOTAMs are issued by the DoD/FAA and will open in a separate window not controlled by AirNav.

 

 
 

FBO, Fuel Providers, and Aircraft Ground Support

  
 Business Name 
 
 Contact 
 
 Services / Description 
 
Fuel Prices
 
Comments
  
Air Bound Aviation, LLC ASRI 130.55
973-575-1833
[web site]
[email]
Air Bound is a full service FBO that has been serving the aviation community for over 20 years. Try Air Bound and see why everyone who does, comes back. It's because of our Personnel, Service, and Commitment to Excellence. We have all the equipment and personnel necessary to make your visit a pleasant one.
Air Bound has over 66K sf of hangar space. We have Fuel, Parking, GPU, Lav service, Hertz rental, Catering, WSI, Pilots lounge, ...

NO RAMP FEE when fuel is purchased. However, if you stay overnight there will be a parking fee.
The Airport does charge a landing fee which Air Bound has nothi
More info and photos of Air Bound Aviation, LLC
 
NATA Safety 1st   Hertz   Pilatus Aircraft  
 
Titan
100LL Jet A
FS $6.71 $5.60 
GUARANTEED
 
   write
FS=Full service
Update Fuel Prices
 

Aviation Businesses, Services, and Facilities

  
 Business Name 
 
 Contact 
 
 Services / Description 
 
Distance
 
Comments
  
 Air Fleet Training Systems
973-575-8220
[web site]
[email]

Like us on facebook See us on instagram
Pilot school (FAR Part 141), Flight training, Aircraft rental, Aerial tours / aerial sightseeing, Aviation accessories, Aircraft sales / leasing / brokerage, ...
 
Certificated Pilot School   Cessna Pilot Center  
 
More info about Air Fleet Training Systems
on airport  
   write
 Essex Air
201-281-4494
[web site]
[email]
Flight training, Aircraft rental

More info about Essex Air
on airport  
   write
Paragon Aircraft Service 973-575-0364
[web site]
[email]
Hangar leasing / sales, Aircraft maintenance, Aircraft modifications, Aircraft parts, Internet access
 
Cessna Service Center   Cirrus   Diamond Aircraft  
 
More info about Paragon Aircraft Service
on airport  
   write
 

Would you like to see your business listed on this page?

 If your business provides an interesting product or service to pilots, flight crews, aircraft, or users of the Essex County Airport, you should consider listing it here.  To start the listing process, click on the button below
 
Add a business
 

Other Pages about Essex County Airport

Essex County Airport
 
Update a link
 
Copyright © AirNav, LLC. All rights reserved. Privacy Policy  Contact